Flight Track Log - Related Links

Times and Time Zones

All times are in EDT time to prevent confusion due to time zone crossing. See the N889JC flight status page for this flight to view local times or setup timezone preferences in your user account.

Time Position Orientation Groundspeed Altitude Reporting Facility
EDT Latitude Longitude Course Direction KTS MPH feet Rate Location/Type
Thu 05:20:30 PM 27.3833 -82.5333 138° Southeast 191 220 600  Level Tampa TRACON
Thu 05:21:48 PM 27.3333 -82.4833 191° South 185 213 3,200 2,018 Climbing Tampa TRACON
Thu 05:24:13 PM 27.2889 -82.4928 327° Northwest 52 60 8,100 1,932 Climbing Miami Center
Thu 05:25:13 PM 27.3394 -82.5303 328° Northwest 116 133 9,800 1,800 Climbing Miami Center
Thu 05:26:13 PM 27.4064 -82.5781 318° Northwest 184 212 11,700 1,950 Climbing Miami Center
Thu 05:27:13 PM 27.4767 -82.6494 344° North 278 320 13,700 2,000 Climbing Miami Center
Thu 05:28:13 PM 27.5797 -82.6828 346° North 336 387 15,700 2,000 Climbing Miami Center
Thu 05:29:58 PM 27.7639 -82.7331 349° North 382 440 19,200 1,564 Climbing Jacksonville Center
Thu 05:30:58 PM 27.8744 -82.7564 347° North 394 453 20,000 750 Climbing Jacksonville Center
Thu 05:31:58 PM 27.9997 -82.7892 348° North 422 486 20,700 1,500 Climbing Jacksonville Center
Thu 05:32:58 PM 28.1353 -82.8219 349° North 437 503 23,000 2,350 Climbing Jacksonville Center
Thu 05:33:58 PM 28.2583 -82.8503 348° North 450 518 25,400 1,500 Climbing Jacksonville Center
Thu 05:34:58 PM 28.3836 -82.8808 349° North 450 518 26,000 350 Climbing Jacksonville Center
Thu 05:35:58 PM 28.4881 -82.9044 343° North 425 489 26,100 950 Climbing Jacksonville Center
Thu 05:36:58 PM 28.6131 -82.9469 335° Northwest 440 506 27,900 950 Climbing Jacksonville Center
Thu 05:37:58 PM 28.7425 -83.0158 336° Northwest 457 526 28,000 100 Climbing Jacksonville Center
Thu 05:38:58 PM 28.8614 -83.0750 335° Northwest 462 532 28,100 50 Climbing Jacksonville Center
Thu 05:39:58 PM 28.9783 -83.1369 336° Northwest 462 532 28,100  Level Jacksonville Center
Thu 05:40:58 PM 29.0950 -83.1967 335° Northwest 462 532 28,100  Level Jacksonville Center
Thu 05:41:58 PM 29.2139 -83.2589 319° Northwest 462 532 28,100  Level Jacksonville Center
Thu 05:42:58 PM 29.3117 -83.3569 317° Northwest 462 532 28,100  Level Jacksonville Center
Thu 05:43:58 PM 29.4092 -83.4600 317° Northwest 467 537 28,100  Level Jacksonville Center
Thu 05:44:58 PM 29.5047 -83.5631 317° Northwest 467 537 28,100  Level Jacksonville Center
Thu 05:45:58 PM 29.6003 -83.6642 313° West 472 543 28,100  Level Jacksonville Center
Thu 05:46:58 PM 29.6872 -83.7700 295° West 472 543 28,100  Level Jacksonville Center
Thu 05:47:58 PM 29.7428 -83.9044 294° West 466 536 28,100  Level Jacksonville Center
Thu 05:48:58 PM 29.7958 -84.0389 295° West 466 536 28,100  Level Jacksonville Center
Thu 05:49:58 PM 29.8489 -84.1714 296° West 461 531 28,100  Level Jacksonville Center
Thu 05:50:58 PM 29.9039 -84.3039 295° West 461 531 28,100  Level Jacksonville Center
Thu 05:51:58 PM 29.9586 -84.4389 295° West 461 531 28,100  Level Jacksonville Center
Thu 05:52:58 PM 30.0111 -84.5717 295° West 461 531 28,100  Level Jacksonville Center
Thu 05:53:58 PM 30.0636 -84.7044 294° West 461 531 28,100  Level Jacksonville Center
Thu 05:54:58 PM 30.1158 -84.8400 296° West 461 531 28,100  Level Jacksonville Center
Thu 05:55:58 PM 30.1703 -84.9708 294° West 461 531 28,100  Level Jacksonville Center
Thu 05:56:58 PM 30.2242 -85.1089 295° West 461 531 28,100  Level Jacksonville Center
Thu 05:57:58 PM 30.2761 -85.2400 294° West 456 525 28,100  Level Jacksonville Center
Thu 05:58:58 PM 30.3281 -85.3761 291° West 461 531 28,100  Level Jacksonville Center
Thu 05:59:58 PM 30.3733 -85.5097 272° West 461 531 28,100  Level Jacksonville Center
Thu 06:00:58 PM 30.3783 -85.6689 271° West 453 521 28,100  Level Jacksonville Center
Thu 06:01:58 PM 30.3814 -85.8133 273° West 453 521 28,100  Level Jacksonville Center
Thu 06:02:58 PM 30.3883 -85.9581 272° West 453 521 28,100  Level Jacksonville Center
Thu 06:03:58 PM 30.3931 -86.1025 272° West 458 527 28,100  Level Jacksonville Center
Thu 06:04:58 PM 30.3978 -86.2447 273° West 458 527 28,100  Level Jacksonville Center
Thu 06:05:58 PM 30.4044 -86.3894 271° West 458 527 28,100  Level Jacksonville Center
Thu 06:06:58 PM 30.4067 -86.5342 273° West 458 527 28,100  Level Jacksonville Center
Thu 06:07:58 PM 30.4128 -86.6789 273° West 458 527 28,100  Level Jacksonville Center
Thu 06:08:58 PM 30.4189 -86.8236 271° West 458 527 28,100  Level Jacksonville Center
Thu 06:09:58 PM 30.4214 -86.9417 272° West 458 527 28,100  Level Jacksonville Center
Thu 06:10:58 PM 30.4267 -87.1033 272° West 463 533 28,100  Level Jacksonville Center
Thu 06:13:06 PM 30.4361 -87.4103 271° West 448 516 28,100 -32 Level Houston Center
Thu 06:14:06 PM 30.4386 -87.5594 272° West 454 522 28,000  Descending Houston Center
Thu 06:15:06 PM 30.4431 -87.7061 272° West 460 529 28,100 50 Climbing Houston Center
Thu 06:16:06 PM 30.4472 -87.8528 271° West 460 529 28,100  Level Houston Center
Thu 06:17:06 PM 30.4494 -88.0142 271° West 455 524 28,100  Level Houston Center
Thu 06:18:06 PM 30.4517 -88.1681 271° West 473 544 28,100  Level Houston Center
Thu 06:19:06 PM 30.4536 -88.3269 273° West 484 557 28,100  Level Houston Center
Thu 06:20:06 PM 30.4594 -88.4833 271° West 490 564 28,100  Level Houston Center
Thu 06:21:06 PM 30.4608 -88.6425 271° West 490 564 28,100  Level Houston Center
Thu 06:22:06 PM 30.4622 -88.7964 270° West 490 564 28,100  Level Houston Center
Thu 06:23:06 PM 30.4631 -88.9458 273° West 490 564 28,100  Level Houston Center
Thu 06:24:06 PM 30.4700 -89.0903 271° West 468 539 28,100  Level Houston Center
Thu 06:25:06 PM 30.4728 -89.2322 271° West 458 527 28,100  Level Houston Center
Thu 06:26:06 PM 30.4753 -89.3744 271° West 448 516 28,100  Level Houston Center
Thu 06:27:06 PM 30.4775 -89.5189 271° West 448 516 28,100  Level Houston Center
Thu 06:28:06 PM 30.4797 -89.6611 272° West 443 510 28,100  Level Houston Center
Thu 06:29:06 PM 30.4839 -89.8031 269° West 443 510 28,100  Level Houston Center
Thu 06:30:06 PM 30.4817 -89.9453 270° West 443 510 28,100  Level Houston Center
Thu 06:31:06 PM 30.4811 -90.0731 271° West 443 510 28,100  Level Houston Center
Thu 06:32:06 PM 30.4825 -90.2103 270° West 437 503 28,100  Level Houston Center
Thu 06:33:06 PM 30.4819 -90.3500 271° West 437 503 28,100  Level Houston Center
Thu 06:34:06 PM 30.4833 -90.4900 271° West 437 503 28,100  Level Houston Center
Thu 06:35:06 PM 30.4844 -90.6319 270° West 437 503 28,100  Level Houston Center
Thu 06:36:06 PM 30.4833 -90.7719 264° West 442 509 28,100  Level Houston Center
Thu 06:37:06 PM 30.4694 -90.9142 263° West 442 509 28,100  Level Houston Center
Thu 06:38:06 PM 30.4536 -91.0539 263° West 442 509 28,100  Level Houston Center
Thu 06:39:06 PM 30.4394 -91.1961 262° West 442 509 28,100  Level Houston Center
Thu 06:40:06 PM 30.4211 -91.3383 262° West 447 514 28,100  Level Houston Center
Thu 06:41:06 PM 30.4047 -91.4781 264° West 447 514 28,100  Level Houston Center
Thu 06:42:06 PM 30.3922 -91.6178 260° West 447 514 28,100  Level Houston Center
Thu 06:43:06 PM 30.3692 -91.7717 262° West 447 514 28,100  Level Houston Center
Thu 06:44:06 PM 30.3522 -91.9136 262° West 447 514 28,100  Level Houston Center
Thu 06:45:06 PM 30.3353 -92.0558 261° West 447 514 28,100  Level Houston Center
Thu 06:46:06 PM 30.3161 -92.2000 264° West 447 514 28,100  Level Houston Center
Thu 06:47:06 PM 30.3050 -92.3131 262° West 447 514 28,100  Level Houston Center
Thu 06:48:06 PM 30.2875 -92.4644 262° West 447 514 28,100  Level Houston Center
Thu 06:49:06 PM 30.2700 -92.6086 262° West 447 514 28,100  Level Houston Center
Thu 06:50:06 PM 30.2522 -92.7503 262° West 447 514 28,100  Level Houston Center
Thu 06:51:06 PM 30.2342 -92.8919 262° West 447 514 28,100  Level Houston Center
Thu 06:52:06 PM 30.2161 -93.0358 261° West 447 514 28,100  Level Houston Center
Thu 06:53:06 PM 30.1981 -93.1750 261° West 447 514 28,100  Level Houston Center
Thu 06:54:06 PM 30.1775 -93.3189 261° West 447 514 28,100  Level Houston Center
Thu 06:55:06 PM 30.1567 -93.4769 262° West 447 514 28,100  Level Houston Center
Thu 06:56:06 PM 30.1381 -93.6208 262° West 452 520 28,100  Level Houston Center
Thu 06:57:06 PM 30.1214 -93.7622 261° West 452 520 28,100  Level Houston Center
Thu 06:58:06 PM 30.1022 -93.9058 262° West 452 520 28,100  Level Houston Center
Thu 06:59:06 PM 30.0853 -94.0447 261° West 447 514 28,100 -50 Level Houston Center
Thu 07:00:06 PM 30.0661 -94.1858 261° West 447 514 28,000 -50 Descending Houston Center
Thu 07:01:06 PM 30.0467 -94.3269 261° West 447 514 28,000  Level Houston Center
Thu 07:02:06 PM 30.0272 -94.4678 261° West 447 514 28,000  Level Houston Center
Thu 07:03:06 PM 30.0075 -94.6064 261° West 447 514 28,000  Level Houston Center
Thu 07:04:06 PM 29.9878 -94.7472 261° West 447 514 28,000 50 Level Houston Center
Thu 07:05:06 PM 29.9700 -94.8739 262° West 447 514 28,100 50 Climbing Houston Center
Thu 07:06:06 PM 29.9522 -95.0147 261° West 447 514 28,100  Level Houston Center
Thu 07:07:06 PM 29.9319 -95.1553 260° West 447 514 28,100  Level Houston Center
Thu 07:08:06 PM 29.9114 -95.2936 261° West 447 514 28,100  Level Houston Center
Thu 07:09:06 PM 29.8911 -95.4342 260° West 447 514 28,100  Level Houston Center
Thu 07:10:06 PM 29.8703 -95.5747 259° West 447 514 28,100  Level Houston Center
Thu 07:11:06 PM 29.8475 -95.7153 261° West 447 514 28,100 -50 Level Houston Center
Thu 07:12:06 PM 29.8286 -95.8533 259° West 447 514 28,000 -950 Descending Houston Center
Thu 07:13:06 PM 29.8053 -95.9936 261° West 447 514 26,200  Descending Houston Center
Thu 07:14:06 PM 29.7864 -96.1314 275° West 434 499 28,000 900 Climbing Houston Center
Thu 07:15:06 PM 29.7967 -96.2586 296° West 433 498 28,000  Level Houston Center
Thu 07:16:06 PM 29.8450 -96.3708 295° West 419 482 28,000  Level Houston Center
Thu 07:17:06 PM 29.8931 -96.4906 295° West 429 494 28,000  Level Houston Center
Thu 07:18:06 PM 29.9389 -96.6028 295° West 410 472 28,000  Level Houston Center
Thu 07:19:06 PM 29.9811 -96.7056 295° West 388 447 28,000  Level Houston Center
Thu 07:20:06 PM 30.0250 -96.8156 293° West 388 447 28,000  Level Houston Center
Thu 07:21:06 PM 30.0647 -96.9256 289° West 383 441 28,000  Level Houston Center
Thu 07:22:06 PM 30.0958 -97.0328 290° West 371 427 28,000  Level Houston Center
Thu 07:23:06 PM 30.1272 -97.1328 288° West 329 379 28,000  Level Houston Center
Thu 07:24:06 PM 30.1528 -97.2231 289° West 302 348 28,000  Level Houston Center
Thu 07:25:06 PM 30.1786 -97.3083 287° West 287 330 28,000  Level Houston Center
Thu 07:26:06 PM 30.1983 -97.3814 295° West 282 325 28,000  Level Houston Center
Thu 07:27:06 PM 30.2247 -97.4478 318° Northwest 257 296 28,000  Level Houston Center
Thu 07:28:06 PM 30.2786 -97.5036 319° Northwest 241 277 28,000  Level Houston Center
Thu 07:29:06 PM 30.3267 -97.5522 320° Northwest 236 272 28,000  Level Houston Center
Thu 07:30:06 PM 30.3706 -97.5956 275° West 223 257 28,000  Level Houston Center
Thu 07:31:06 PM 30.3758 -97.6658 179° South 197 227 28,000  Level Houston Center
Thu 07:32:06 PM 30.3217 -97.6650 174° South 132 152 28,000  Level Houston Center
Thu 07:33:06 PM 30.2864 -97.6606 179° South 138 159 28,000  Level Houston Center
Thu 07:34:06 PM 30.2364 -97.6600 180° South 147 169 28,000  Level Houston Center
Thu 07:35:06 PM 30.1967 -97.6600 180° South 155 178 28,000  Level Houston Center

Login

Don't have an account? Register now (free) for customized features, flight alerts, and more!